sensor_id;sensor_type;location;lat;lon;timestamp;P1;durP1;ratioP1;P2;durP2;ratioP2
37205;SDS011;23099;42.636;23.198;2023-02-16T00:01:41;78.70;;;34.50;;
37205;SDS011;23099;42.636;23.198;2023-02-16T00:04:12;77.37;;;37.37;;
37205;SDS011;23099;42.636;23.198;2023-02-16T00:06:45;70.87;;;32.50;;
37205;SDS011;23099;42.636;23.198;2023-02-16T00:09:12;59.47;;;26.92;;
37205;SDS011;23099;42.636;23.198;2023-02-16T00:11:38;57.87;;;24.13;;
37205;SDS011;23099;42.636;23.198;2023-02-16T00:14:22;51.33;;;23.33;;
37205;SDS011;23099;42.636;23.198;2023-02-16T00:16:51;42.03;;;17.33;;
37205;SDS011;23099;42.636;23.198;2023-02-16T00:19:19;39.87;;;16.20;;
37205;SDS011;23099;42.636;23.198;2023-02-16T00:21:49;34.50;;;14.53;;
37205;SDS011;23099;42.636;23.198;2023-02-16T00:24:17;36.17;;;14.57;;
37205;SDS011;23099;42.636;23.198;2023-02-16T00:26:44;38.93;;;14.93;;
37205;SDS011;23099;42.636;23.198;2023-02-16T00:29:13;64.03;;;21.40;;
37205;SDS011;23099;42.636;23.198;2023-02-16T00:31:43;46.40;;;16.23;;
37205;SDS011;23099;42.636;23.198;2023-02-16T00:34:19;60.97;;;20.90;;
37205;SDS011;23099;42.636;23.198;2023-02-16T00:36:52;47.30;;;15.90;;
37205;SDS011;23099;42.636;23.198;2023-02-16T00:39:19;49.63;;;17.83;;
37205;SDS011;23099;42.636;23.198;2023-02-16T00:41:46;84.80;;;28.03;;
37205;SDS011;23099;42.636;23.198;2023-02-16T00:44:18;55.80;;;23.47;;
37205;SDS011;23099;42.636;23.198;2023-02-16T00:46:47;55.70;;;22.77;;
37205;SDS011;23099;42.636;23.198;2023-02-16T00:49:14;56.50;;;23.60;;
37205;SDS011;23099;42.636;23.198;2023-02-16T00:51:41;50.27;;;17.07;;
37205;SDS011;23099;42.636;23.198;2023-02-16T00:54:09;32.97;;;12.13;;
37205;SDS011;23099;42.636;23.198;2023-02-16T00:56:36;35.30;;;13.80;;
37205;SDS011;23099;42.636;23.198;2023-02-16T00:59:04;27.63;;;12.43;;
37205;SDS011;23099;42.636;23.198;2023-02-16T01:01:32;29.43;;;11.27;;
37205;SDS011;23099;42.636;23.198;2023-02-16T01:04:01;28.52;;;11.43;;
37205;SDS011;23099;42.636;23.198;2023-02-16T01:06:31;29.43;;;10.40;;
37205;SDS011;23099;42.636;23.198;2023-02-16T01:09:17;30.43;;;10.83;;
37205;SDS011;23099;42.636;23.198;2023-02-16T01:12:04;55.47;;;19.58;;
37205;SDS011;23099;42.636;23.198;2023-02-16T01:14:37;33.97;;;12.57;;
37205;SDS011;23099;42.636;23.198;2023-02-16T01:17:03;33.60;;;13.53;;
37205;SDS011;23099;42.636;23.198;2023-02-16T01:19:30;33.23;;;12.77;;
37205;SDS011;23099;42.636;23.198;2023-02-16T01:21:57;25.70;;;9.57;;
37205;SDS011;23099;42.636;23.198;2023-02-16T01:24:25;59.53;;;23.27;;
37205;SDS011;23099;42.636;23.198;2023-02-16T01:26:52;56.53;;;22.13;;
37205;SDS011;23099;42.636;23.198;2023-02-16T01:29:19;50.40;;;20.70;;
37205;SDS011;23099;42.636;23.198;2023-02-16T01:31:47;42.35;;;14.02;;
37205;SDS011;23099;42.636;23.198;2023-02-16T01:34:14;22.77;;;8.80;;
37205;SDS011;23099;42.636;23.198;2023-02-16T01:36:41;25.33;;;11.33;;
37205;SDS011;23099;42.636;23.198;2023-02-16T01:39:10;21.90;;;10.33;;
37205;SDS011;23099;42.636;23.198;2023-02-16T01:41:58;25.17;;;10.47;;
37205;SDS011;23099;42.636;23.198;2023-02-16T01:44:33;33.70;;;14.50;;
37205;SDS011;23099;42.636;23.198;2023-02-16T01:47:04;33.27;;;16.97;;
37205;SDS011;23099;42.636;23.198;2023-02-16T01:49:38;26.90;;;11.87;;
37205;SDS011;23099;42.636;23.198;2023-02-16T01:52:06;73.13;;;41.47;;
37205;SDS011;23099;42.636;23.198;2023-02-16T01:54:41;31.97;;;14.20;;
37205;SDS011;23099;42.636;23.198;2023-02-16T01:57:20;27.30;;;12.43;;
37205;SDS011;23099;42.636;23.198;2023-02-16T02:02:51;23.60;;;9.87;;
37205;SDS011;23099;42.636;23.198;2023-02-16T02:05:41;21.67;;;10.23;;
37205;SDS011;23099;42.636;23.198;2023-02-16T02:11:00;25.83;;;11.80;;
37205;SDS011;23099;42.636;23.198;2023-02-16T02:13:37;26.13;;;12.47;;
37205;SDS011;23099;42.636;23.198;2023-02-16T02:16:08;23.93;;;11.83;;
37205;SDS011;23099;42.636;23.198;2023-02-16T02:21:08;28.70;;;11.97;;
37205;SDS011;23099;42.636;23.198;2023-02-16T02:24:29;25.73;;;11.73;;
37205;SDS011;23099;42.636;23.198;2023-02-16T02:27:15;30.47;;;11.27;;
37205;SDS011;23099;42.636;23.198;2023-02-16T02:32:56;35.50;;;13.93;;
37205;SDS011;23099;42.636;23.198;2023-02-16T02:35:40;37.37;;;14.57;;
37205;SDS011;23099;42.636;23.198;2023-02-16T02:38:14;36.37;;;14.77;;
37205;SDS011;23099;42.636;23.198;2023-02-16T02:40:47;36.67;;;13.50;;
37205;SDS011;23099;42.636;23.198;2023-02-16T02:43:25;70.63;;;21.80;;
37205;SDS011;23099;42.636;23.198;2023-02-16T02:46:00;69.50;;;23.07;;
37205;SDS011;23099;42.636;23.198;2023-02-16T02:48:32;37.37;;;15.30;;
37205;SDS011;23099;42.636;23.198;2023-02-16T02:51:00;30.67;;;13.40;;
37205;SDS011;23099;42.636;23.198;2023-02-16T02:53:48;32.03;;;13.03;;
37205;SDS011;23099;42.636;23.198;2023-02-16T02:56:39;29.73;;;12.27;;
37205;SDS011;23099;42.636;23.198;2023-02-16T02:59:27;26.58;;;11.90;;
37205;SDS011;23099;42.636;23.198;2023-02-16T03:04:41;25.48;;;11.70;;
37205;SDS011;23099;42.636;23.198;2023-02-16T03:07:11;23.30;;;10.30;;
37205;SDS011;23099;42.636;23.198;2023-02-16T03:12:06;26.40;;;10.80;;
37205;SDS011;23099;42.636;23.198;2023-02-16T03:14:54;21.83;;;10.57;;
37205;SDS011;23099;42.636;23.198;2023-02-16T03:17:25;27.70;;;12.57;;
37205;SDS011;23099;42.636;23.198;2023-02-16T03:22:59;30.37;;;12.93;;
37205;SDS011;23099;42.636;23.198;2023-02-16T03:25:46;28.73;;;13.13;;
37205;SDS011;23099;42.636;23.198;2023-02-16T03:28:31;31.80;;;15.13;;
37205;SDS011;23099;42.636;23.198;2023-02-16T03:31:19;35.70;;;15.87;;
37205;SDS011;23099;42.636;23.198;2023-02-16T03:33:48;33.37;;;15.23;;
37205;SDS011;23099;42.636;23.198;2023-02-16T03:36:18;27.77;;;10.53;;
37205;SDS011;23099;42.636;23.198;2023-02-16T03:38:45;20.87;;;8.50;;
37205;SDS011;23099;42.636;23.198;2023-02-16T03:41:12;23.23;;;10.07;;
37205;SDS011;23099;42.636;23.198;2023-02-16T03:43:38;23.73;;;10.13;;
37205;SDS011;23099;42.636;23.198;2023-02-16T03:46:05;24.27;;;10.13;;
37205;SDS011;23099;42.636;23.198;2023-02-16T03:48:33;23.23;;;8.30;;
37205;SDS011;23099;42.636;23.198;2023-02-16T03:51:00;22.88;;;9.77;;
37205;SDS011;23099;42.636;23.198;2023-02-16T03:53:26;24.17;;;11.60;;
37205;SDS011;23099;42.636;23.198;2023-02-16T03:55:53;29.07;;;12.43;;
37205;SDS011;23099;42.636;23.198;2023-02-16T03:58:21;24.90;;;10.57;;
37205;SDS011;23099;42.636;23.198;2023-02-16T04:00:49;28.53;;;12.10;;
37205;SDS011;23099;42.636;23.198;2023-02-16T04:03:17;23.10;;;10.30;;
37205;SDS011;23099;42.636;23.198;2023-02-16T04:05:45;23.13;;;9.93;;
37205;SDS011;23099;42.636;23.198;2023-02-16T04:10:38;22.30;;;8.00;;
37205;SDS011;23099;42.636;23.198;2023-02-16T04:13:05;24.73;;;10.37;;
37205;SDS011;23099;42.636;23.198;2023-02-16T04:15:31;23.07;;;8.80;;
37205;SDS011;23099;42.636;23.198;2023-02-16T04:17:58;20.20;;;8.50;;
37205;SDS011;23099;42.636;23.198;2023-02-16T04:20:26;26.97;;;12.50;;
37205;SDS011;23099;42.636;23.198;2023-02-16T04:22:56;24.33;;;12.70;;
37205;SDS011;23099;42.636;23.198;2023-02-16T04:27:50;21.20;;;9.57;;
37205;SDS011;23099;42.636;23.198;2023-02-16T04:30:17;19.77;;;8.67;;
37205;SDS011;23099;42.636;23.198;2023-02-16T04:32:45;19.97;;;8.37;;
37205;SDS011;23099;42.636;23.198;2023-02-16T04:35:12;19.93;;;9.17;;
37205;SDS011;23099;42.636;23.198;2023-02-16T04:37:39;26.43;;;12.17;;
37205;SDS011;23099;42.636;23.198;2023-02-16T04:40:08;24.03;;;10.83;;
37205;SDS011;23099;42.636;23.198;2023-02-16T04:42:37;42.17;;;20.73;;
37205;SDS011;23099;42.636;23.198;2023-02-16T04:45:04;29.73;;;13.13;;
37205;SDS011;23099;42.636;23.198;2023-02-16T04:47:32;22.88;;;10.50;;
37205;SDS011;23099;42.636;23.198;2023-02-16T04:49:58;41.80;;;19.37;;
37205;SDS011;23099;42.636;23.198;2023-02-16T04:52:25;33.37;;;15.47;;
37205;SDS011;23099;42.636;23.198;2023-02-16T04:54:52;26.33;;;12.23;;
37205;SDS011;23099;42.636;23.198;2023-02-16T04:57:20;26.33;;;11.37;;
37205;SDS011;23099;42.636;23.198;2023-02-16T04:59:48;24.17;;;9.13;;
37205;SDS011;23099;42.636;23.198;2023-02-16T05:02:14;26.00;;;11.07;;
37205;SDS011;23099;42.636;23.198;2023-02-16T05:04:41;22.37;;;8.20;;
37205;SDS011;23099;42.636;23.198;2023-02-16T05:07:08;25.97;;;10.33;;
37205;SDS011;23099;42.636;23.198;2023-02-16T05:09:34;20.70;;;8.73;;
37205;SDS011;23099;42.636;23.198;2023-02-16T05:12:01;21.77;;;8.20;;
37205;SDS011;23099;42.636;23.198;2023-02-16T05:14:47;32.17;;;14.70;;
37205;SDS011;23099;42.636;23.198;2023-02-16T05:17:14;20.77;;;9.05;;
37205;SDS011;23099;42.636;23.198;2023-02-16T05:19:43;31.60;;;13.20;;
37205;SDS011;23099;42.636;23.198;2023-02-16T05:22:12;21.33;;;8.17;;
37205;SDS011;23099;42.636;23.198;2023-02-16T05:24:39;21.88;;;9.43;;
37205;SDS011;23099;42.636;23.198;2023-02-16T05:27:07;20.80;;;8.48;;
37205;SDS011;23099;42.636;23.198;2023-02-16T05:29:36;27.53;;;11.37;;
37205;SDS011;23099;42.636;23.198;2023-02-16T05:32:04;26.27;;;11.73;;
37205;SDS011;23099;42.636;23.198;2023-02-16T05:34:31;32.78;;;12.52;;
37205;SDS011;23099;42.636;23.198;2023-02-16T05:36:57;30.33;;;13.13;;
37205;SDS011;23099;42.636;23.198;2023-02-16T05:39:24;92.93;;;38.13;;
37205;SDS011;23099;42.636;23.198;2023-02-16T05:41:51;36.17;;;14.30;;
37205;SDS011;23099;42.636;23.198;2023-02-16T05:44:17;28.00;;;11.70;;
37205;SDS011;23099;42.636;23.198;2023-02-16T05:46:44;79.50;;;32.77;;
37205;SDS011;23099;42.636;23.198;2023-02-16T05:49:13;63.40;;;26.83;;
37205;SDS011;23099;42.636;23.198;2023-02-16T05:51:41;37.87;;;17.00;;
37205;SDS011;23099;42.636;23.198;2023-02-16T05:54:08;42.27;;;18.50;;
37205;SDS011;23099;42.636;23.198;2023-02-16T05:56:41;49.60;;;20.87;;
37205;SDS011;23099;42.636;23.198;2023-02-16T05:59:08;52.93;;;21.80;;
37205;SDS011;23099;42.636;23.198;2023-02-16T06:01:34;56.97;;;22.43;;
37205;SDS011;23099;42.636;23.198;2023-02-16T06:04:04;68.80;;;29.63;;
37205;SDS011;23099;42.636;23.198;2023-02-16T06:06:33;53.33;;;21.90;;
37205;SDS011;23099;42.636;23.198;2023-02-16T06:09:00;58.95;;;24.92;;
37205;SDS011;23099;42.636;23.198;2023-02-16T06:11:26;57.37;;;25.17;;
37205;SDS011;23099;42.636;23.198;2023-02-16T06:14:03;55.80;;;23.63;;
37205;SDS011;23099;42.636;23.198;2023-02-16T06:16:34;58.10;;;26.13;;
37205;SDS011;23099;42.636;23.198;2023-02-16T06:19:01;60.15;;;26.40;;
37205;SDS011;23099;42.636;23.198;2023-02-16T06:21:28;57.33;;;25.70;;
37205;SDS011;23099;42.636;23.198;2023-02-16T06:23:56;68.27;;;29.27;;
37205;SDS011;23099;42.636;23.198;2023-02-16T06:26:23;50.05;;;23.90;;
37205;SDS011;23099;42.636;23.198;2023-02-16T06:28:51;50.28;;;21.50;;
37205;SDS011;23099;42.636;23.198;2023-02-16T06:31:18;50.70;;;22.37;;
37205;SDS011;23099;42.636;23.198;2023-02-16T06:33:45;56.17;;;23.87;;
37205;SDS011;23099;42.636;23.198;2023-02-16T06:36:12;63.93;;;26.00;;
37205;SDS011;23099;42.636;23.198;2023-02-16T06:38:39;62.60;;;26.63;;
37205;SDS011;23099;42.636;23.198;2023-02-16T06:41:08;62.43;;;27.27;;
37205;SDS011;23099;42.636;23.198;2023-02-16T06:46:01;77.60;;;33.67;;
37205;SDS011;23099;42.636;23.198;2023-02-16T06:48:28;84.23;;;34.20;;
37205;SDS011;23099;42.636;23.198;2023-02-16T06:50:55;68.43;;;29.93;;
37205;SDS011;23099;42.636;23.198;2023-02-16T06:53:22;72.37;;;30.90;;
37205;SDS011;23099;42.636;23.198;2023-02-16T06:55:49;70.80;;;30.30;;
37205;SDS011;23099;42.636;23.198;2023-02-16T06:58:17;75.57;;;32.77;;
37205;SDS011;23099;42.636;23.198;2023-02-16T07:00:44;89.80;;;36.03;;
37205;SDS011;23099;42.636;23.198;2023-02-16T07:03:11;87.70;;;39.80;;
37205;SDS011;23099;42.636;23.198;2023-02-16T07:05:38;83.47;;;37.07;;
37205;SDS011;23099;42.636;23.198;2023-02-16T07:08:04;56.67;;;27.67;;
37205;SDS011;23099;42.636;23.198;2023-02-16T07:10:32;61.70;;;27.55;;
37205;SDS011;23099;42.636;23.198;2023-02-16T07:12:59;52.30;;;21.10;;
37205;SDS011;23099;42.636;23.198;2023-02-16T07:15:27;45.10;;;17.97;;
37205;SDS011;23099;42.636;23.198;2023-02-16T07:17:53;49.72;;;19.42;;
37205;SDS011;23099;42.636;23.198;2023-02-16T07:20:20;44.80;;;18.37;;
37205;SDS011;23099;42.636;23.198;2023-02-16T07:22:47;45.43;;;18.73;;
37205;SDS011;23099;42.636;23.198;2023-02-16T07:25:13;50.13;;;20.80;;
37205;SDS011;23099;42.636;23.198;2023-02-16T07:27:40;51.03;;;22.10;;
37205;SDS011;23099;42.636;23.198;2023-02-16T07:30:07;55.30;;;25.17;;
37205;SDS011;23099;42.636;23.198;2023-02-16T07:32:36;62.78;;;29.15;;
37205;SDS011;23099;42.636;23.198;2023-02-16T07:37:30;67.30;;;29.93;;
37205;SDS011;23099;42.636;23.198;2023-02-16T07:39:56;63.17;;;29.63;;
37205;SDS011;23099;42.636;23.198;2023-02-16T07:42:23;62.63;;;30.27;;
37205;SDS011;23099;42.636;23.198;2023-02-16T07:44:50;64.17;;;31.37;;
37205;SDS011;23099;42.636;23.198;2023-02-16T07:47:16;62.30;;;31.07;;
37205;SDS011;23099;42.636;23.198;2023-02-16T07:49:44;63.03;;;31.70;;
37205;SDS011;23099;42.636;23.198;2023-02-16T07:52:11;61.55;;;31.27;;
37205;SDS011;23099;42.636;23.198;2023-02-16T07:54:38;55.13;;;26.93;;
37205;SDS011;23099;42.636;23.198;2023-02-16T07:57:05;53.83;;;26.70;;
37205;SDS011;23099;42.636;23.198;2023-02-16T07:59:32;54.60;;;26.07;;
37205;SDS011;23099;42.636;23.198;2023-02-16T08:01:59;49.80;;;24.93;;
37205;SDS011;23099;42.636;23.198;2023-02-16T08:04:25;51.65;;;25.00;;
37205;SDS011;23099;42.636;23.198;2023-02-16T08:06:53;46.45;;;22.30;;
37205;SDS011;23099;42.636;23.198;2023-02-16T08:09:20;43.85;;;21.90;;
37205;SDS011;23099;42.636;23.198;2023-02-16T08:11:47;44.60;;;22.70;;
37205;SDS011;23099;42.636;23.198;2023-02-16T08:14:13;44.42;;;21.75;;
37205;SDS011;23099;42.636;23.198;2023-02-16T08:16:40;44.78;;;21.45;;
37205;SDS011;23099;42.636;23.198;2023-02-16T08:19:07;50.08;;;22.25;;
37205;SDS011;23099;42.636;23.198;2023-02-16T08:21:35;51.10;;;23.98;;
37205;SDS011;23099;42.636;23.198;2023-02-16T08:24:05;53.42;;;24.33;;
37205;SDS011;23099;42.636;23.198;2023-02-16T08:26:34;55.47;;;24.17;;
37205;SDS011;23099;42.636;23.198;2023-02-16T08:29:03;50.60;;;24.38;;
37205;SDS011;23099;42.636;23.198;2023-02-16T08:31:31;55.27;;;24.20;;
37205;SDS011;23099;42.636;23.198;2023-02-16T08:34:00;54.42;;;24.98;;
37205;SDS011;23099;42.636;23.198;2023-02-16T08:36:28;48.72;;;23.50;;
37205;SDS011;23099;42.636;23.198;2023-02-16T08:38:57;49.67;;;22.65;;
37205;SDS011;23099;42.636;23.198;2023-02-16T08:41:27;52.10;;;24.52;;
37205;SDS011;23099;42.636;23.198;2023-02-16T08:43:55;38.83;;;20.23;;
37205;SDS011;23099;42.636;23.198;2023-02-16T08:46:22;33.38;;;14.35;;
37205;SDS011;23099;42.636;23.198;2023-02-16T08:48:49;35.75;;;17.10;;
37205;SDS011;23099;42.636;23.198;2023-02-16T08:51:16;38.60;;;20.15;;
37205;SDS011;23099;42.636;23.198;2023-02-16T08:53:45;36.47;;;17.80;;
37205;SDS011;23099;42.636;23.198;2023-02-16T08:56:12;57.05;;;41.10;;
37205;SDS011;23099;42.636;23.198;2023-02-16T08:58:42;37.42;;;18.98;;
37205;SDS011;23099;42.636;23.198;2023-02-16T09:01:09;37.95;;;18.95;;
37205;SDS011;23099;42.636;23.198;2023-02-16T09:03:37;37.75;;;19.70;;
37205;SDS011;23099;42.636;23.198;2023-02-16T09:06:07;32.53;;;17.23;;
37205;SDS011;23099;42.636;23.198;2023-02-16T09:08:35;30.65;;;15.57;;
37205;SDS011;23099;42.636;23.198;2023-02-16T09:11:04;35.17;;;16.42;;
37205;SDS011;23099;42.636;23.198;2023-02-16T09:13:32;35.13;;;16.13;;
37205;SDS011;23099;42.636;23.198;2023-02-16T09:16:02;31.60;;;15.90;;
37205;SDS011;23099;42.636;23.198;2023-02-16T09:18:29;44.70;;;25.27;;
37205;SDS011;23099;42.636;23.198;2023-02-16T09:20:57;40.15;;;21.33;;
37205;SDS011;23099;42.636;23.198;2023-02-16T09:23:28;32.53;;;16.08;;
37205;SDS011;23099;42.636;23.198;2023-02-16T09:25:57;31.77;;;17.48;;
37205;SDS011;23099;42.636;23.198;2023-02-16T09:28:25;43.03;;;20.70;;
37205;SDS011;23099;42.636;23.198;2023-02-16T09:30:52;54.38;;;30.10;;
37205;SDS011;23099;42.636;23.198;2023-02-16T09:33:21;56.53;;;31.38;;
37205;SDS011;23099;42.636;23.198;2023-02-16T09:35:48;56.42;;;32.03;;
37205;SDS011;23099;42.636;23.198;2023-02-16T09:38:15;54.70;;;32.75;;
37205;SDS011;23099;42.636;23.198;2023-02-16T09:40:42;57.40;;;33.88;;
37205;SDS011;23099;42.636;23.198;2023-02-16T09:43:12;54.42;;;32.65;;
37205;SDS011;23099;42.636;23.198;2023-02-16T09:45:51;54.33;;;32.40;;
37205;SDS011;23099;42.636;23.198;2023-02-16T09:48:29;33.90;;;19.67;;
37205;SDS011;23099;42.636;23.198;2023-02-16T09:51:02;45.65;;;25.08;;
37205;SDS011;23099;42.636;23.198;2023-02-16T09:53:34;49.50;;;29.52;;
37205;SDS011;23099;42.636;23.198;2023-02-16T09:56:06;57.20;;;33.50;;
37205;SDS011;23099;42.636;23.198;2023-02-16T09:58:43;57.72;;;34.17;;
37205;SDS011;23099;42.636;23.198;2023-02-16T10:01:15;58.55;;;32.78;;
37205;SDS011;23099;42.636;23.198;2023-02-16T10:03:52;61.70;;;36.72;;
37205;SDS011;23099;42.636;23.198;2023-02-16T10:06:31;63.38;;;35.10;;
37205;SDS011;23099;42.636;23.198;2023-02-16T10:09:09;68.28;;;38.92;;
37205;SDS011;23099;42.636;23.198;2023-02-16T10:11:39;70.22;;;39.63;;
37205;SDS011;23099;42.636;23.198;2023-02-16T10:14:14;70.57;;;39.80;;
37205;SDS011;23099;42.636;23.198;2023-02-16T10:16:49;59.17;;;33.97;;
37205;SDS011;23099;42.636;23.198;2023-02-16T10:19:21;65.05;;;34.92;;
37205;SDS011;23099;42.636;23.198;2023-02-16T10:21:52;60.63;;;35.60;;
37205;SDS011;23099;42.636;23.198;2023-02-16T10:24:23;56.88;;;31.85;;
37205;SDS011;23099;42.636;23.198;2023-02-16T10:26:54;59.45;;;34.33;;
37205;SDS011;23099;42.636;23.198;2023-02-16T10:29:27;25.00;;;12.18;;
37205;SDS011;23099;42.636;23.198;2023-02-16T10:31:57;53.30;;;28.80;;
37205;SDS011;23099;42.636;23.198;2023-02-16T10:34:43;40.83;;;21.50;;
37205;SDS011;23099;42.636;23.198;2023-02-16T10:37:18;18.48;;;9.20;;
37205;SDS011;23099;42.636;23.198;2023-02-16T10:39:58;10.40;;;3.47;;
37205;SDS011;23099;42.636;23.198;2023-02-16T10:42:39;7.85;;;2.35;;
37205;SDS011;23099;42.636;23.198;2023-02-16T10:45:14;3.75;;;1.20;;
37205;SDS011;23099;42.636;23.198;2023-02-16T10:47:48;6.80;;;1.95;;
37205;SDS011;23099;42.636;23.198;2023-02-16T10:50:19;8.73;;;2.00;;
37205;SDS011;23099;42.636;23.198;2023-02-16T10:52:50;10.82;;;2.70;;
37205;SDS011;23099;42.636;23.198;2023-02-16T10:55:20;24.10;;;5.70;;
37205;SDS011;23099;42.636;23.198;2023-02-16T10:57:52;19.80;;;4.55;;
37205;SDS011;23099;42.636;23.198;2023-02-16T11:00:22;6.65;;;2.22;;
37205;SDS011;23099;42.636;23.198;2023-02-16T11:02:54;8.13;;;2.58;;
37205;SDS011;23099;42.636;23.198;2023-02-16T11:05:30;7.80;;;2.05;;
37205;SDS011;23099;42.636;23.198;2023-02-16T11:08:00;12.13;;;3.30;;
37205;SDS011;23099;42.636;23.198;2023-02-16T11:10:34;9.45;;;3.00;;
37205;SDS011;23099;42.636;23.198;2023-02-16T11:13:03;9.73;;;3.60;;
37205;SDS011;23099;42.636;23.198;2023-02-16T11:15:32;7.05;;;2.67;;
37205;SDS011;23099;42.636;23.198;2023-02-16T11:18:01;6.13;;;2.05;;
37205;SDS011;23099;42.636;23.198;2023-02-16T11:20:34;6.53;;;3.10;;
37205;SDS011;23099;42.636;23.198;2023-02-16T11:23:20;5.97;;;1.02;;
37205;SDS011;23099;42.636;23.198;2023-02-16T11:25:58;9.20;;;3.38;;
37205;SDS011;23099;42.636;23.198;2023-02-16T11:28:28;9.57;;;2.05;;
37205;SDS011;23099;42.636;23.198;2023-02-16T11:31:02;6.63;;;2.03;;
37205;SDS011;23099;42.636;23.198;2023-02-16T11:33:42;8.70;;;1.95;;
37205;SDS011;23099;42.636;23.198;2023-02-16T11:38:55;6.35;;;1.55;;
37205;SDS011;23099;42.636;23.198;2023-02-16T11:41:24;5.07;;;1.42;;
37205;SDS011;23099;42.636;23.198;2023-02-16T11:43:51;4.78;;;1.10;;
37205;SDS011;23099;42.636;23.198;2023-02-16T11:46:20;4.95;;;1.30;;
37205;SDS011;23099;42.636;23.198;2023-02-16T11:48:48;8.55;;;2.60;;
37205;SDS011;23099;42.636;23.198;2023-02-16T11:51:30;5.82;;;1.83;;
37205;SDS011;23099;42.636;23.198;2023-02-16T11:54:02;6.25;;;1.77;;
37205;SDS011;23099;42.636;23.198;2023-02-16T11:56:32;10.68;;;2.72;;
37205;SDS011;23099;42.636;23.198;2023-02-16T11:59:04;7.93;;;2.40;;
37205;SDS011;23099;42.636;23.198;2023-02-16T12:01:40;6.40;;;1.35;;
37205;SDS011;23099;42.636;23.198;2023-02-16T12:04:16;10.10;;;2.50;;
37205;SDS011;23099;42.636;23.198;2023-02-16T12:07:00;8.35;;;1.92;;
37205;SDS011;23099;42.636;23.198;2023-02-16T12:09:41;16.50;;;5.30;;
37205;SDS011;23099;42.636;23.198;2023-02-16T12:12:15;10.15;;;2.83;;
37205;SDS011;23099;42.636;23.198;2023-02-16T12:14:49;7.03;;;2.47;;
37205;SDS011;23099;42.636;23.198;2023-02-16T12:17:33;7.97;;;2.05;;
37205;SDS011;23099;42.636;23.198;2023-02-16T12:20:18;12.95;;;3.85;;
37205;SDS011;23099;42.636;23.198;2023-02-16T12:22:58;9.98;;;3.45;;
37205;SDS011;23099;42.636;23.198;2023-02-16T12:25:36;8.68;;;2.20;;
37205;SDS011;23099;42.636;23.198;2023-02-16T12:28:09;7.22;;;1.48;;
37205;SDS011;23099;42.636;23.198;2023-02-16T12:30:47;18.35;;;5.38;;
37205;SDS011;23099;42.636;23.198;2023-02-16T12:33:22;11.82;;;2.85;;
37205;SDS011;23099;42.636;23.198;2023-02-16T12:39:01;19.92;;;4.68;;
37205;SDS011;23099;42.636;23.198;2023-02-16T12:41:38;8.10;;;2.08;;
37205;SDS011;23099;42.636;23.198;2023-02-16T12:44:12;13.75;;;3.58;;
37205;SDS011;23099;42.636;23.198;2023-02-16T12:46:42;7.32;;;2.65;;
37205;SDS011;23099;42.636;23.198;2023-02-16T12:49:12;14.52;;;2.80;;
37205;SDS011;23099;42.636;23.198;2023-02-16T12:51:46;11.52;;;2.70;;
37205;SDS011;23099;42.636;23.198;2023-02-16T12:54:19;14.70;;;3.80;;
37205;SDS011;23099;42.636;23.198;2023-02-16T12:56:51;9.05;;;2.42;;
37205;SDS011;23099;42.636;23.198;2023-02-16T12:59:26;15.38;;;4.00;;
37205;SDS011;23099;42.636;23.198;2023-02-16T13:01:59;12.52;;;3.40;;
37205;SDS011;23099;42.636;23.198;2023-02-16T13:04:36;13.73;;;3.35;;
37205;SDS011;23099;42.636;23.198;2023-02-16T13:07:06;9.20;;;2.28;;
37205;SDS011;23099;42.636;23.198;2023-02-16T13:09:45;9.02;;;2.40;;
37205;SDS011;23099;42.636;23.198;2023-02-16T13:12:20;21.23;;;8.13;;
37205;SDS011;23099;42.636;23.198;2023-02-16T13:14:55;15.20;;;3.55;;
37205;SDS011;23099;42.636;23.198;2023-02-16T13:17:30;13.07;;;2.10;;
37205;SDS011;23099;42.636;23.198;2023-02-16T13:19:59;17.13;;;5.18;;
37205;SDS011;23099;42.636;23.198;2023-02-16T13:25:34;15.60;;;5.45;;
37205;SDS011;23099;42.636;23.198;2023-02-16T13:28:17;10.70;;;3.40;;
37205;SDS011;23099;42.636;23.198;2023-02-16T13:31:02;11.27;;;3.03;;
37205;SDS011;23099;42.636;23.198;2023-02-16T13:33:42;9.55;;;2.90;;
37205;SDS011;23099;42.636;23.198;2023-02-16T13:36:28;11.35;;;3.10;;
37205;SDS011;23099;42.636;23.198;2023-02-16T13:39:19;18.05;;;4.20;;
37205;SDS011;23099;42.636;23.198;2023-02-16T13:42:09;9.98;;;2.53;;
37205;SDS011;23099;42.636;23.198;2023-02-16T13:44:53;13.05;;;3.63;;
37205;SDS011;23099;42.636;23.198;2023-02-16T13:47:24;11.98;;;3.00;;
37205;SDS011;23099;42.636;23.198;2023-02-16T13:49:55;11.20;;;3.08;;
37205;SDS011;23099;42.636;23.198;2023-02-16T13:52:27;11.55;;;3.67;;
37205;SDS011;23099;42.636;23.198;2023-02-16T13:54:57;12.18;;;4.10;;
37205;SDS011;23099;42.636;23.198;2023-02-16T14:00:25;13.90;;;5.20;;
37205;SDS011;23099;42.636;23.198;2023-02-16T14:02:55;12.80;;;4.13;;
37205;SDS011;23099;42.636;23.198;2023-02-16T14:05:24;49.85;;;27.13;;
37205;SDS011;23099;42.636;23.198;2023-02-16T14:11:03;26.40;;;15.33;;
37205;SDS011;23099;42.636;23.198;2023-02-16T14:13:43;52.83;;;27.88;;
37205;SDS011;23099;42.636;23.198;2023-02-16T14:16:30;55.72;;;32.00;;
37205;SDS011;23099;42.636;23.198;2023-02-16T14:18:59;33.08;;;16.77;;
37205;SDS011;23099;42.636;23.198;2023-02-16T14:21:34;65.82;;;34.45;;
37205;SDS011;23099;42.636;23.198;2023-02-16T14:24:03;15.60;;;4.40;;
37205;SDS011;23099;42.636;23.198;2023-02-16T14:26:48;19.80;;;6.43;;
37205;SDS011;23099;42.636;23.198;2023-02-16T14:29:19;10.88;;;4.32;;
37205;SDS011;23099;42.636;23.198;2023-02-16T14:31:49;13.63;;;5.25;;
37205;SDS011;23099;42.636;23.198;2023-02-16T14:34:21;21.15;;;7.03;;
37205;SDS011;23099;42.636;23.198;2023-02-16T14:37:09;15.25;;;4.80;;
37205;SDS011;23099;42.636;23.198;2023-02-16T14:39:53;29.67;;;8.07;;
37205;SDS011;23099;42.636;23.198;2023-02-16T14:42:23;36.40;;;15.25;;
37205;SDS011;23099;42.636;23.198;2023-02-16T14:45:00;30.75;;;13.02;;
37205;SDS011;23099;42.636;23.198;2023-02-16T14:47:51;24.17;;;7.22;;
37205;SDS011;23099;42.636;23.198;2023-02-16T14:50:25;13.80;;;5.30;;
37205;SDS011;23099;42.636;23.198;2023-02-16T14:59:03;25.90;;;11.82;;
37205;SDS011;23099;42.636;23.198;2023-02-16T15:01:40;35.53;;;15.50;;
37205;SDS011;23099;42.636;23.198;2023-02-16T15:04:07;41.95;;;21.77;;
37205;SDS011;23099;42.636;23.198;2023-02-16T15:06:36;63.38;;;35.25;;
37205;SDS011;23099;42.636;23.198;2023-02-16T15:09:05;67.00;;;39.35;;
37205;SDS011;23099;42.636;23.198;2023-02-16T15:11:42;63.55;;;38.05;;
37205;SDS011;23099;42.636;23.198;2023-02-16T15:14:33;64.78;;;35.25;;
37205;SDS011;23099;42.636;23.198;2023-02-16T15:17:08;62.42;;;34.40;;
37205;SDS011;23099;42.636;23.198;2023-02-16T15:19:35;70.70;;;34.88;;
37205;SDS011;23099;42.636;23.198;2023-02-16T15:22:07;69.88;;;37.72;;
37205;SDS011;23099;42.636;23.198;2023-02-16T15:24:35;64.53;;;34.75;;
37205;SDS011;23099;42.636;23.198;2023-02-16T15:27:02;64.97;;;35.28;;
37205;SDS011;23099;42.636;23.198;2023-02-16T15:29:29;60.75;;;32.90;;